Time;durP1;ratioP1;P1;durP2;ratioP2;P2;SDS_P1;SDS_P2;PMS_P1;PMS_P2;Temp;Humidity;BMP_temperature;BMP_pressure;BME280_temperature;BME280_humidity;BME280_pressure;Samples;Min_cycle;Max_cycle;Signal;HPM_P1;HPM_P2
2023/05/29 00:01:42;;;;;;;9.13;4.32;;;16.20;99.90;;;;;;5034190;28;20212;-71
2023/05/29 00:04:07;;;;;;;10.93;4.43;;;16.30;99.90;;;;;;5016076;28;20262;-70
2023/05/29 00:06:33;;;;;;;11.65;3.60;;;16.30;99.90;;;;;;5017242;28;20252;-72
2023/05/29 00:08:58;;;;;;;9.15;4.40;;;16.30;99.90;;;;;;5035948;28;20183;-71
2023/05/29 00:11:25;;;;;;;8.23;3.70;;;16.20;99.90;;;;;;5036957;28;20211;-71
2023/05/29 00:13:50;;;;;;;8.82;4.22;;;16.20;99.90;;;;;;5035673;28;20209;-72
2023/05/29 00:16:17;;;;;;;10.93;4.13;;;16.10;99.90;;;;;;5036985;28;20288;-71
2023/05/29 00:18:45;;;;;;;9.48;4.40;;;16.10;99.90;;;;;;5019611;28;20267;-70
2023/05/29 00:21:14;;;;;;;8.20;3.80;;;16.20;99.90;;;;;;5043230;28;20203;-72
2023/05/29 00:23:39;;;;;;;9.05;4.25;;;16.10;99.90;;;;;;5036731;28;20169;-71
2023/05/29 00:26:05;;;;;;;9.40;3.65;;;16.00;99.90;;;;;;5040423;28;20760;-70
2023/05/29 00:28:31;;;;;;;9.85;4.70;;;16.00;99.90;;;;;;5021630;28;20209;-71
2023/05/29 00:30:57;;;;;;;9.63;3.95;;;16.10;99.90;;;;;;5042514;28;20199;-70
2023/05/29 00:33:22;;;;;;;7.50;3.72;;;16.00;99.90;;;;;;5021565;28;20212;-71
2023/05/29 00:35:48;;;;;;;8.38;3.97;;;16.00;99.90;;;;;;5041376;28;20172;-71
2023/05/29 00:38:14;;;;;;;10.52;4.57;;;16.10;99.90;;;;;;5025608;28;20210;-71
2023/05/29 00:40:40;;;;;;;10.63;4.00;;;16.00;99.90;;;;;;5019193;28;20216;-71
2023/05/29 00:43:06;;;;;;;12.85;4.25;;;15.90;99.90;;;;;;5036416;28;20204;-72
2023/05/29 00:45:35;;;;;;;8.65;4.32;;;15.90;99.90;;;;;;5033363;28;20234;-72
2023/05/29 00:48:02;;;;;;;11.32;4.50;;;16.00;99.90;;;;;;5030776;28;20671;-70
2023/05/29 00:50:28;;;;;;;12.13;4.32;;;16.10;99.90;;;;;;5017981;28;20601;-71
2023/05/29 00:52:54;;;;;;;9.70;4.47;;;15.90;99.90;;;;;;5035013;28;20600;-72
2023/05/29 00:55:20;;;;;;;12.60;4.13;;;15.90;99.90;;;;;;5036514;28;20208;-73
2023/05/29 00:57:47;;;;;;;10.98;4.65;;;15.70;99.90;;;;;;5036089;28;20283;-72
2023/05/29 01:00:14;;;;;;;7.57;3.83;;;15.80;99.90;;;;;;5035699;28;20283;-71
2023/05/29 01:02:44;;;;;;;9.98;3.78;;;15.80;99.90;;;;;;5037439;28;20173;-72
2023/05/29 01:05:14;;;;;;;7.38;4.00;;;15.90;99.90;;;;;;5038995;28;20262;-72
2023/05/29 01:07:42;;;;;;;6.22;3.40;;;15.90;99.90;;;;;;5038108;28;20706;-71
2023/05/29 01:10:09;;;;;;;10.10;4.15;;;15.90;99.90;;;;;;5040583;28;20216;-71
2023/05/29 01:12:49;;;;;;;10.20;5.13;;;15.80;99.90;;;;;;5038906;28;20211;-71
2023/05/29 01:15:56;;;;;;;7.38;3.67;;;15.90;99.90;;;;;;5032614;28;20250;-71
2023/05/29 01:18:41;;;;;;;7.88;3.70;;;16.00;99.90;;;;;;4962925;28;20740;-72
2023/05/29 01:21:27;;;;;;;7.38;4.00;;;16.10;99.90;;;;;;4963046;28;20705;-71
2023/05/29 01:24:02;;;;;;;9.65;3.97;;;16.20;99.90;;;;;;5004619;28;20204;-72
2023/05/29 01:26:51;;;;;;;7.88;4.00;;;16.20;99.90;;;;;;5016064;28;20221;-72
2023/05/29 01:29:26;;;;;;;8.02;4.07;;;16.10;99.90;;;;;;5038754;28;20716;-71
2023/05/29 01:31:53;;;;;;;12.45;4.38;;;16.00;99.90;;;;;;5034102;28;20208;-72
2023/05/29 01:34:19;;;;;;;8.15;3.58;;;16.00;99.90;;;;;;5034689;28;20314;-72
2023/05/29 01:36:46;;;;;;;10.15;4.28;;;16.10;99.90;;;;;;5034765;28;20295;-71
2023/05/29 01:39:12;;;;;;;8.48;4.13;;;16.20;99.90;;;;;;5037116;28;20220;-70
2023/05/29 01:41:39;;;;;;;7.13;3.92;;;16.20;99.90;;;;;;5036240;28;20210;-71
2023/05/29 01:44:09;;;;;;;10.68;4.15;;;16.20;99.90;;;;;;5019011;28;20208;-72
2023/05/29 01:46:40;;;;;;;9.95;4.68;;;16.10;99.90;;;;;;5018744;28;20204;-72
2023/05/29 01:49:06;;;;;;;7.13;4.40;;;16.00;99.90;;;;;;5038828;28;20288;-71
2023/05/29 01:51:32;;;;;;;7.45;3.80;;;15.90;99.90;;;;;;5037916;28;20236;-72
2023/05/29 01:54:01;;;;;;;8.75;4.28;;;15.90;99.90;;;;;;5039227;28;20201;-72
2023/05/29 01:56:28;;;;;;;11.60;5.15;;;16.00;99.90;;;;;;5039717;28;20286;-72
2023/05/29 01:58:55;;;;;;;12.45;5.10;;;16.00;99.90;;;;;;5040347;28;20670;-72
2023/05/29 02:01:24;;;;;;;10.65;4.50;;;15.90;99.90;;;;;;5021358;28;20258;-71
2023/05/29 02:03:51;;;;;;;9.73;4.38;;;15.90;99.90;;;;;;5012751;28;20208;-71
2023/05/29 02:06:17;;;;;;;10.15;4.40;;;15.80;99.90;;;;;;5031635;28;20280;-71
2023/05/29 02:08:42;;;;;;;8.52;4.15;;;15.80;99.90;;;;;;5015248;28;20267;-72
2023/05/29 02:11:08;;;;;;;9.35;4.28;;;15.80;99.90;;;;;;5015326;28;20287;-71
2023/05/29 02:13:34;;;;;;;9.32;4.25;;;15.90;99.90;;;;;;5033105;28;20230;-72
2023/05/29 02:15:59;;;;;;;10.10;4.50;;;15.80;99.90;;;;;;5011313;28;20577;-72
2023/05/29 02:18:25;;;;;;;8.65;4.50;;;15.80;99.90;;;;;;5035510;28;20302;-72
2023/05/29 02:20:51;;;;;;;8.30;4.95;;;15.70;99.90;;;;;;5034902;28;20197;-72
2023/05/29 02:23:17;;;;;;;10.35;4.50;;;15.80;99.90;;;;;;5036287;28;20245;-70
2023/05/29 02:25:43;;;;;;;10.23;4.72;;;15.60;99.90;;;;;;5035323;28;20204;-71
2023/05/29 02:28:08;;;;;;;8.82;4.30;;;15.70;99.90;;;;;;5020127;28;20215;-71
2023/05/29 02:30:34;;;;;;;14.68;4.15;;;15.70;99.90;;;;;;5034472;28;20224;-71
2023/05/29 02:33:00;;;;;;;6.25;4.03;;;15.70;99.90;;;;;;5024467;28;20272;-72
2023/05/29 02:35:25;;;;;;;12.20;4.35;;;15.60;99.90;;;;;;5036653;28;20674;-72
2023/05/29 02:37:52;;;;;;;10.10;4.28;;;15.60;99.90;;;;;;5038568;28;20286;-72
2023/05/29 02:40:18;;;;;;;10.57;5.03;;;15.60;99.90;;;;;;5040742;28;20211;-72
2023/05/29 02:42:44;;;;;;;11.68;4.53;;;15.60;99.90;;;;;;5038444;28;20207;-72
2023/05/29 02:45:10;;;;;;;6.65;4.47;;;15.60;99.90;;;;;;5030264;28;20252;-72
2023/05/29 02:47:36;;;;;;;8.80;4.82;;;15.50;99.90;;;;;;5031800;28;20275;-72
2023/05/29 02:50:02;;;;;;;9.52;4.65;;;15.50;99.90;;;;;;5021031;28;20589;-71
2023/05/29 02:52:30;;;;;;;9.80;5.00;;;15.50;99.90;;;;;;5039027;28;20208;-71
2023/05/29 02:54:56;;;;;;;8.70;4.10;;;15.50;99.90;;;;;;5037690;28;20208;-72
2023/05/29 02:57:22;;;;;;;10.93;4.25;;;15.30;99.90;;;;;;5033602;28;20219;-72
2023/05/29 02:59:49;;;;;;;11.88;4.78;;;15.30;99.90;;;;;;5033987;28;20713;-71
2023/05/29 03:02:14;;;;;;;8.27;4.10;;;15.30;99.90;;;;;;5039902;28;20275;-71
2023/05/29 03:04:40;;;;;;;9.57;4.38;;;15.30;99.90;;;;;;5037296;28;20307;-72
2023/05/29 03:07:06;;;;;;;9.07;4.50;;;15.40;99.90;;;;;;5039091;28;20222;-72
2023/05/29 03:09:32;;;;;;;7.60;4.43;;;15.40;99.90;;;;;;5032973;28;20690;-72
2023/05/29 03:11:58;;;;;;;7.53;4.28;;;15.40;99.90;;;;;;5036907;28;20210;-72
2023/05/29 03:14:23;;;;;;;9.30;4.55;;;15.20;99.90;;;;;;5019760;28;20721;-70
2023/05/29 03:16:50;;;;;;;7.55;4.28;;;15.20;99.90;;;;;;5036578;28;20231;-72
2023/05/29 03:19:16;;;;;;;9.38;4.68;;;15.30;99.90;;;;;;5022050;28;20218;-72
2023/05/29 03:21:41;;;;;;;6.88;4.00;;;15.40;99.90;;;;;;5038586;28;20219;-71
2023/05/29 03:24:07;;;;;;;7.53;4.57;;;15.40;99.90;;;;;;5032611;28;20845;-72
2023/05/29 03:26:32;;;;;;;11.52;4.78;;;15.30;99.90;;;;;;5015464;28;20264;-70
2023/05/29 03:28:58;;;;;;;11.85;4.82;;;15.30;99.90;;;;;;5035032;28;20216;-71
2023/05/29 03:31:24;;;;;;;9.68;5.30;;;15.30;99.90;;;;;;5031620;28;20216;-71
2023/05/29 03:33:49;;;;;;;9.05;4.55;;;15.40;99.90;;;;;;5030964;28;20304;-72
2023/05/29 03:36:18;;;;;;;9.98;4.07;;;15.50;99.90;;;;;;5010857;28;20833;-72
2023/05/29 03:38:43;;;;;;;9.18;4.28;;;15.60;99.90;;;;;;5037585;28;20233;-71
2023/05/29 03:41:09;;;;;;;7.95;4.20;;;15.80;99.90;;;;;;5038825;28;20637;-71
2023/05/29 03:43:36;;;;;;;8.88;4.22;;;15.80;99.90;;;;;;5037564;28;20208;-72
2023/05/29 03:46:01;;;;;;;8.85;3.83;;;16.20;99.90;;;;;;5034610;28;20204;-72
2023/05/29 03:48:27;;;;;;;8.73;4.53;;;16.60;99.90;;;;;;5035605;28;20724;-72
2023/05/29 03:50:53;;;;;;;9.25;4.00;;;17.00;99.90;;;;;;5028772;28;20181;-72
2023/05/29 03:53:18;;;;;;;8.85;4.65;;;17.40;99.90;;;;;;5022373;28;20211;-72
2023/05/29 03:55:44;;;;;;;10.75;4.40;;;17.60;99.90;;;;;;5036592;28;20262;-72
2023/05/29 03:58:12;;;;;;;10.18;4.22;;;18.00;99.90;;;;;;5039173;28;20204;-72
2023/05/29 04:00:38;;;;;;;10.18;4.03;;;17.90;99.90;;;;;;5039675;28;20311;-72
2023/05/29 04:03:03;;;;;;;8.82;3.90;;;18.20;99.90;;;;;;5018709;28;20215;-71
2023/05/29 04:05:29;;;;;;;6.80;4.20;;;18.40;99.90;;;;;;5037040;28;20211;-72
2023/05/29 04:07:55;;;;;;;13.15;4.47;;;18.30;99.90;;;;;;5035001;28;20220;-70
2023/05/29 04:10:21;;;;;;;10.30;3.92;;;18.40;99.90;;;;;;5030576;28;20244;-72
2023/05/29 04:12:47;;;;;;;6.10;3.75;;;18.30;99.90;;;;;;5031112;28;20231;-72
2023/05/29 04:15:13;;;;;;;9.48;4.43;;;17.90;99.90;;;;;;5031711;28;20175;-71
2023/05/29 04:17:38;;;;;;;8.15;4.30;;;17.70;99.90;;;;;;5014362;28;20196;-71
2023/05/29 04:20:08;;;;;;;8.20;4.22;;;17.80;99.90;;;;;;5005369;28;20271;-71
2023/05/29 04:22:37;;;;;;;7.68;3.78;;;18.10;99.90;;;;;;5032875;28;20220;-71
2023/05/29 04:25:04;;;;;;;6.63;3.83;;;17.90;99.90;;;;;;5015526;28;20713;-72
2023/05/29 04:27:32;;;;;;;7.25;3.88;;;17.60;99.90;;;;;;5020514;28;20294;-71
2023/05/29 04:29:58;;;;;;;9.02;4.40;;;17.50;99.90;;;;;;5017462;28;20222;-72
2023/05/29 04:32:23;;;;;;;8.48;3.60;;;17.50;99.90;;;;;;5018335;28;20261;-71
2023/05/29 04:34:50;;;;;;;5.78;3.95;;;17.40;99.90;;;;;;5004902;28;20708;-72
2023/05/29 04:37:17;;;;;;;7.03;4.95;;;17.30;99.90;;;;;;5038826;28;20314;-71
2023/05/29 04:39:43;;;;;;;10.73;5.93;;;17.30;99.90;;;;;;5022819;28;20581;-69
2023/05/29 04:42:08;;;;;;;46.70;28.70;;;17.60;99.90;;;;;;5042970;28;20172;-71
2023/05/29 04:44:34;;;;;;;21.15;13.60;;;17.80;99.90;;;;;;5043864;28;20203;-72
2023/05/29 04:47:03;;;;;;;8.57;5.50;;;17.80;99.90;;;;;;5033589;28;20207;-72
2023/05/29 04:49:29;;;;;;;29.55;16.38;;;17.70;99.90;;;;;;5010559;28;20212;-72
2023/05/29 04:51:54;;;;;;;23.05;16.35;;;17.70;99.90;;;;;;5015572;28;20648;-72
2023/05/29 04:54:22;;;;;;;7.20;4.18;;;17.70;99.90;;;;;;5034013;28;20184;-72
2023/05/29 04:56:47;;;;;;;6.22;3.75;;;17.60;99.90;;;;;;5035152;28;20664;-73
2023/05/29 04:59:13;;;;;;;13.45;6.65;;;17.40;99.90;;;;;;5041864;28;20254;-73
2023/05/29 05:01:39;;;;;;;8.52;5.00;;;17.40;99.90;;;;;;5035129;28;20216;-72
2023/05/29 05:04:05;;;;;;;17.92;10.88;;;17.80;99.90;;;;;;5035802;28;20254;-71
2023/05/29 05:06:30;;;;;;;8.05;4.03;;;17.80;99.90;;;;;;5016302;28;20223;-71
2023/05/29 05:08:56;;;;;;;11.70;6.63;;;18.10;99.90;;;;;;5023008;28;20257;-72
2023/05/29 05:11:23;;;;;;;6.32;4.05;;;18.40;99.90;;;;;;5043081;28;20214;-71
2023/05/29 05:13:49;;;;;;;4.82;3.80;;;19.50;99.90;;;;;;5044188;28;20688;-72
2023/05/29 05:16:14;;;;;;;6.93;3.22;;;20.40;99.90;;;;;;5040209;28;20208;-69
2023/05/29 05:18:40;;;;;;;5.53;2.90;;;20.60;99.90;;;;;;5025917;28;20204;-71
2023/05/29 05:21:06;;;;;;;5.45;3.08;;;20.70;99.90;;;;;;5041813;28;20203;-69
2023/05/29 05:23:32;;;;;;;4.90;3.08;;;21.80;99.90;;;;;;5025035;28;20651;-71
2023/05/29 05:25:58;;;;;;;4.90;3.20;;;22.00;99.90;;;;;;5041552;28;20575;-71
2023/05/29 05:28:23;;;;;;;4.65;3.30;;;23.30;99.90;;;;;;5047306;28;20215;-70
2023/05/29 05:30:49;;;;;;;6.10;2.92;;;22.80;99.90;;;;;;5026555;28;20210;-71
2023/05/29 05:33:15;;;;;;;7.22;3.22;;;22.50;99.90;;;;;;5048629;28;20206;-69
2023/05/29 05:35:40;;;;;;;3.67;2.90;;;22.90;99.90;;;;;;5032009;28;20226;-70
2023/05/29 05:38:06;;;;;;;5.30;2.97;;;22.90;99.90;;;;;;5025692;28;20735;-71
2023/05/29 05:40:32;;;;;;;3.50;2.67;;;24.00;99.90;;;;;;5048630;28;20220;-71
2023/05/29 05:42:58;;;;;;;4.28;2.60;;;23.90;99.90;;;;;;5048107;28;20199;-71
2023/05/29 05:45:23;;;;;;;3.42;2.42;;;24.20;99.90;;;;;;5040474;28;20215;-71
2023/05/29 05:47:49;;;;;;;4.57;2.33;;;24.00;99.90;;;;;;5025952;28;20234;-71
2023/05/29 05:50:15;;;;;;;5.25;3.03;;;24.80;99.90;;;;;;5044265;28;20207;-69
2023/05/29 05:52:41;;;;;;;3.92;2.75;;;25.30;99.90;;;;;;5045848;28;20207;-71
2023/05/29 05:55:07;;;;;;;3.45;2.20;;;25.40;99.90;;;;;;5043259;28;20199;-71
2023/05/29 05:57:33;;;;;;;4.45;2.20;;;26.00;99.90;;;;;;5024574;28;20208;-71
2023/05/29 06:00:00;;;;;;;3.03;2.10;;;26.30;99.90;;;;;;5044328;28;20203;-71
2023/05/29 06:02:25;;;;;;;2.70;1.77;;;25.80;98.40;;;;;;5039879;28;20203;-70
2023/05/29 06:04:51;;;;;;;3.55;2.13;;;26.20;98.30;;;;;;5023445;28;20200;-69
2023/05/29 06:07:17;;;;;;;4.03;2.40;;;26.70;97.90;;;;;;5033195;28;20640;-69
2023/05/29 06:09:43;;;;;;;3.72;2.00;;;26.40;96.20;;;;;;5046471;28;20200;-70
2023/05/29 06:12:09;;;;;;;4.15;2.33;;;27.60;95.70;;;;;;5046255;28;20180;-71
2023/05/29 06:14:35;;;;;;;11.23;8.35;;;26.90;94.60;;;;;;5041361;28;20701;-71
2023/05/29 06:17:01;;;;;;;7.22;3.70;;;27.20;93.40;;;;;;5042402;28;20211;-72
2023/05/29 06:19:27;;;;;;;3.55;2.70;;;26.60;93.60;;;;;;5040948;28;20200;-71
2023/05/29 06:21:52;;;;;;;4.53;2.60;;;25.60;94.50;;;;;;5047382;28;20215;-70
2023/05/29 06:24:18;;;;;;;7.47;5.10;;;25.30;95.00;;;;;;5034910;28;20187;-71
2023/05/29 06:26:44;;;;;;;4.72;4.05;;;25.30;95.30;;;;;;5038722;28;20200;-70
2023/05/29 06:29:09;;;;;;;3.78;2.50;;;25.20;95.10;;;;;;5022617;28;20235;-69
2023/05/29 06:31:35;;;;;;;5.63;2.42;;;25.50;94.60;;;;;;5026589;28;20211;-68
2023/05/29 06:34:01;;;;;;;3.75;2.45;;;24.10;95.80;;;;;;5043370;28;20215;-70
2023/05/29 06:36:26;;;;;;;3.08;2.33;;;25.30;95.90;;;;;;5042423;28;20263;-71
2023/05/29 06:38:52;;;;;;;4.90;2.25;;;26.30;94.80;;;;;;5017745;28;20207;-72
2023/05/29 06:41:18;;;;;;;4.82;2.47;;;26.20;93.60;;;;;;5043152;28;20311;-71
2023/05/29 06:43:44;;;;;;;2.53;2.20;;;26.00;93.60;;;;;;5041107;28;20581;-72
2023/05/29 06:46:11;;;;;;;4.32;2.08;;;26.50;93.10;;;;;;5021246;28;20204;-70
2023/05/29 06:48:36;;;;;;;4.40;3.28;;;26.50;92.80;;;;;;5037880;28;20330;-69
2023/05/29 06:51:12;;;;;;;20.27;18.15;;;26.80;93.60;;;;;;5020722;28;21127;-71
2023/05/29 06:53:41;;;;;;;4.90;2.60;;;26.80;92.70;;;;;;5045214;28;20179;-70
2023/05/29 06:56:06;;;;;;;4.18;2.38;;;28.00;92.00;;;;;;5041372;28;20207;-70
2023/05/29 06:58:32;;;;;;;5.47;4.20;;;27.90;91.60;;;;;;5046433;28;20779;-72
2023/05/29 07:00:59;;;;;;;5.32;2.50;;;28.70;90.80;;;;;;5041447;28;20297;-72
2023/05/29 07:03:26;;;;;;;5.88;3.53;;;28.60;90.00;;;;;;5026888;28;20242;-71
2023/05/29 07:05:52;;;;;;;6.03;4.18;;;29.40;88.10;;;;;;5046281;28;20184;-71
2023/05/29 07:08:18;;;;;;;3.75;2.75;;;28.90;87.80;;;;;;5039639;28;20215;-71
2023/05/29 07:10:43;;;;;;;2.55;2.03;;;29.20;85.60;;;;;;5041825;28;20740;-69
2023/05/29 07:13:09;;;;;;;6.30;3.90;;;28.30;86.70;;;;;;5042524;28;20199;-71
2023/05/29 07:15:35;;;;;;;2.95;2.03;;;27.60;87.60;;;;;;5042945;28;20714;-71
2023/05/29 07:18:00;;;;;;;4.28;2.95;;;27.70;88.10;;;;;;5039244;23;20231;-72
2023/05/29 07:20:26;;;;;;;2.75;1.98;;;26.70;88.80;;;;;;5020578;28;20227;-74
2023/05/29 07:22:51;;;;;;;3.75;2.78;;;27.60;88.00;;;;;;5028826;28;20287;-74
2023/05/29 07:25:17;;;;;;;3.20;2.30;;;27.20;85.90;;;;;;5011007;28;20208;-72
2023/05/29 07:27:43;;;;;;;3.90;2.00;;;28.30;87.40;;;;;;5025544;28;20739;-73
2023/05/29 07:30:09;;;;;;;3.08;2.42;;;28.00;87.20;;;;;;5013536;28;20267;-73
2023/05/29 07:32:34;;;;;;;3.67;2.20;;;27.80;87.30;;;;;;4990854;28;20177;-72
2023/05/29 07:35:00;;;;;;;3.08;2.08;;;28.00;87.10;;;;;;5010983;28;20205;-73
2023/05/29 07:37:26;;;;;;;3.10;2.38;;;27.90;87.40;;;;;;4995045;28;20290;-73
2023/05/29 07:39:51;;;;;;;3.42;2.78;;;26.90;87.10;;;;;;5012077;28;20269;-74
2023/05/29 07:42:17;;;;;;;4.13;3.33;;;26.70;88.30;;;;;;5013795;28;20186;-72
2023/05/29 07:44:42;;;;;;;4.30;2.70;;;27.30;88.00;;;;;;4994162;28;20232;-73
2023/05/29 07:47:09;;;;;;;7.07;4.97;;;28.70;85.70;;;;;;5015627;28;20595;-73
2023/05/29 07:49:37;;;;;;;4.05;2.60;;;28.90;84.00;;;;;;5005933;28;20215;-73
2023/05/29 07:52:03;;;;;;;5.20;3.78;;;28.90;81.50;;;;;;5016969;28;20211;-74
2023/05/29 07:54:32;;;;;;;5.30;3.83;;;28.70;81.70;;;;;;5014828;28;20205;-73
2023/05/29 07:56:59;;;;;;;7.50;5.28;;;27.00;83.40;;;;;;5018549;28;20180;-73
2023/05/29 07:59:25;;;;;;;4.35;2.38;;;27.30;86.20;;;;;;5014382;28;20204;-73
2023/05/29 08:01:51;;;;;;;4.22;2.35;;;26.60;86.10;;;;;;5019703;28;20266;-73
2023/05/29 08:04:16;;;;;;;4.32;2.40;;;26.00;86.80;;;;;;5007450;28;20639;-72
2023/05/29 08:06:43;;;;;;;6.32;3.00;;;25.70;88.50;;;;;;5000128;28;20219;-73
2023/05/29 08:09:09;;;;;;;4.72;2.20;;;24.90;90.60;;;;;;5021366;28;20200;-73
2023/05/29 08:11:36;;;;;;;4.50;3.10;;;24.40;91.30;;;;;;5015281;28;21048;-72
2023/05/29 08:14:02;;;;;;;5.35;4.25;;;23.60;92.70;;;;;;5014981;28;20208;-73
2023/05/29 08:16:28;;;;;;;4.25;3.40;;;23.70;93.00;;;;;;5013485;28;20284;-72
2023/05/29 08:18:54;;;;;;;3.92;2.35;;;23.90;92.70;;;;;;5015196;28;20657;-73
2023/05/29 08:21:20;;;;;;;2.80;1.90;;;24.90;92.30;;;;;;5016298;28;20204;-73
2023/05/29 08:23:45;;;;;;;4.38;2.20;;;25.90;91.30;;;;;;5014576;28;20166;-73
2023/05/29 08:26:12;;;;;;;3.97;2.47;;;26.90;89.30;;;;;;5018547;28;20219;-73
2023/05/29 08:28:38;;;;;;;3.47;2.08;;;26.70;89.10;;;;;;4999917;28;20880;-72
2023/05/29 08:31:03;;;;;;;3.22;2.28;;;25.70;88.70;;;;;;4998777;28;20287;-73
2023/05/29 08:33:30;;;;;;;3.72;2.28;;;25.80;88.40;;;;;;5015338;28;20208;-73
2023/05/29 08:35:58;;;;;;;2.42;2.20;;;26.10;88.50;;;;;;5022411;28;20544;-74
2023/05/29 08:38:25;;;;;;;3.58;2.45;;;26.10;87.60;;;;;;5015910;28;20216;-73
2023/05/29 08:40:51;;;;;;;3.10;2.17;;;25.90;88.00;;;;;;5004027;28;20278;-73
2023/05/29 08:43:23;;;;;;;3.45;2.60;;;25.40;90.00;;;;;;5000766;28;20205;-72
2023/05/29 08:45:54;;;;;;;2.45;2.22;;;26.20;90.00;;;;;;5019380;28;20200;-73
2023/05/29 08:48:24;;;;;;;3.10;2.40;;;26.20;90.00;;;;;;5000100;28;20193;-72
2023/05/29 08:50:53;;;;;;;3.30;2.28;;;26.80;90.20;;;;;;5011022;28;20195;-72
2023/05/29 08:53:19;;;;;;;3.88;2.25;;;26.60;89.80;;;;;;5014865;28;20220;-74
2023/05/29 08:55:46;;;;;;;4.75;2.47;;;26.40;89.50;;;;;;5007065;28;20208;-73
2023/05/29 08:58:16;;;;;;;3.75;2.28;;;26.60;88.30;;;;;;4999263;28;20251;-72
2023/05/29 09:00:43;;;;;;;4.13;2.83;;;26.20;88.50;;;;;;5004688;28;20225;-72
2023/05/29 09:03:09;;;;;;;6.93;3.50;;;25.50;89.70;;;;;;4999965;28;20396;-72
2023/05/29 09:05:39;;;;;;;5.55;2.30;;;26.00;89.90;;;;;;4995239;28;20181;-73
2023/05/29 09:08:05;;;;;;;3.53;2.42;;;24.40;90.60;;;;;;5017793;28;20208;-73
2023/05/29 09:10:31;;;;;;;3.60;2.53;;;25.20;90.90;;;;;;5002150;28;20201;-73
2023/05/29 09:12:58;;;;;;;2.75;2.22;;;24.50;90.60;;;;;;5014401;28;20279;-73
2023/05/29 09:15:24;;;;;;;4.40;2.30;;;25.30;91.40;;;;;;4997557;28;20225;-72
2023/05/29 09:17:54;;;;;;;5.47;2.35;;;26.10;90.20;;;;;;5020142;28;20617;-73
2023/05/29 09:20:23;;;;;;;2.55;2.35;;;26.20;90.20;;;;;;5017299;28;20217;-72
2023/05/29 09:23:18;;;;;;;5.07;2.25;;;26.00;90.80;;;;;;5021063;28;20287;-74
2023/05/29 09:25:43;;;;;;;5.35;2.28;;;26.30;90.00;;;;;;5018686;28;20988;-72
2023/05/29 09:28:09;;;;;;;3.95;2.78;;;25.90;90.10;;;;;;5019653;28;20240;-72
2023/05/29 09:30:46;;;;;;;5.05;2.80;;;25.60;90.40;;;;;;5021624;28;20255;-72
2023/05/29 09:33:14;;;;;;;6.30;3.10;;;25.20;91.30;;;;;;4997660;28;20169;-72
2023/05/29 09:35:39;;;;;;;4.63;3.00;;;25.10;91.40;;;;;;5009280;28;20181;-73
2023/05/29 09:38:07;;;;;;;4.53;2.75;;;25.40;90.90;;;;;;5021633;28;20581;-73
2023/05/29 09:40:34;;;;;;;7.05;3.17;;;25.00;91.40;;;;;;5011143;28;20224;-73
2023/05/29 09:43:11;;;;;;;3.58;2.58;;;25.40;91.10;;;;;;4998192;28;20212;-73
2023/05/29 09:45:41;;;;;;;4.68;2.63;;;25.30;91.10;;;;;;5010519;28;20205;-72
2023/05/29 09:48:17;;;;;;;5.70;2.92;;;25.00;91.60;;;;;;5018046;28;20216;-73
2023/05/29 09:50:47;;;;;;;4.28;2.92;;;24.60;91.70;;;;;;4997363;28;20656;-74
2023/05/29 09:53:24;;;;;;;5.07;2.95;;;24.50;91.90;;;;;;4999506;28;20204;-72
2023/05/29 09:55:54;;;;;;;7.40;3.30;;;24.20;92.60;;;;;;5004650;28;20775;-73
2023/05/29 09:58:21;;;;;;;3.72;2.95;;;23.50;93.50;;;;;;5016490;28;20225;-72
2023/05/29 10:00:51;;;;;;;4.00;3.00;;;23.30;93.70;;;;;;5019200;28;20223;-72
2023/05/29 10:03:17;;;;;;;5.40;3.00;;;23.30;94.20;;;;;;5017645;28;20199;-72
2023/05/29 10:05:47;;;;;;;4.50;2.88;;;24.00;93.60;;;;;;5004601;28;20272;-73
2023/05/29 10:08:14;;;;;;;4.53;3.10;;;23.50;93.90;;;;;;5018448;28;20216;-73
2023/05/29 10:11:09;;;;;;;3.15;2.45;;;23.50;93.50;;;;;;5021036;28;20208;-72
2023/05/29 10:13:38;;;;;;;4.32;3.03;;;24.40;92.90;;;;;;5015397;28;20212;-73
2023/05/29 10:16:11;;;;;;;3.72;2.67;;;24.70;91.80;;;;;;4995423;28;20209;-73
2023/05/29 10:18:45;;;;;;;6.07;3.20;;;24.00;91.20;;;;;;5011861;28;21869;-73
2023/05/29 10:21:12;;;;;;;5.13;3.20;;;24.60;91.90;;;;;;5009439;28;20261;-71
2023/05/29 10:23:40;;;;;;;5.43;3.00;;;24.80;91.60;;;;;;5009609;28;20672;-73
2023/05/29 10:26:21;;;;;;;4.85;2.97;;;24.80;90.80;;;;;;4998795;28;20250;-73
2023/05/29 10:29:05;;;;;;;4.20;2.47;;;24.40;90.80;;;;;;5010727;28;20594;-73
2023/05/29 10:31:54;;;;;;;5.20;3.05;;;24.50;91.50;;;;;;5010748;28;20223;-72
2023/05/29 10:34:56;;;;;;;5.00;2.80;;;24.50;90.50;;;;;;5014540;28;20239;-72
2023/05/29 10:37:22;;;;;;;3.72;2.50;;;24.60;90.90;;;;;;5016524;28;20711;-72
2023/05/29 10:39:48;;;;;;;3.75;2.88;;;25.10;90.20;;;;;;5017716;28;20295;-72
2023/05/29 10:42:38;;;;;;;4.22;3.17;;;24.90;88.80;;;;;;5000000;28;20622;-72
2023/05/29 10:45:04;;;;;;;6.95;2.90;;;24.40;89.80;;;;;;5017225;28;20180;-74
2023/05/29 10:47:30;;;;;;;6.25;2.92;;;24.00;88.80;;;;;;5012872;28;20200;-73
2023/05/29 10:50:00;;;;;;;5.38;3.00;;;23.70;89.90;;;;;;5002840;28;20581;-73
2023/05/29 10:52:30;;;;;;;4.50;2.63;;;24.10;90.30;;;;;;5008650;28;20373;-74
2023/05/29 10:54:57;;;;;;;3.20;2.60;;;24.30;90.00;;;;;;5013519;28;20208;-74
2023/05/29 10:57:23;;;;;;;3.67;2.95;;;23.90;88.60;;;;;;4994840;28;20231;-73
2023/05/29 11:00:06;;;;;;;3.55;2.30;;;24.20;88.60;;;;;;5010021;28;20178;-73
2023/05/29 11:02:35;;;;;;;4.32;3.00;;;24.20;88.40;;;;;;4992953;28;20227;-73
2023/05/29 11:05:19;;;;;;;6.85;2.97;;;24.00;90.40;;;;;;5014392;28;20255;-73
2023/05/29 11:07:53;;;;;;;6.53;4.35;;;24.30;90.90;;;;;;4989086;28;20719;-74
2023/05/29 11:10:43;;;;;;;5.47;3.60;;;24.10;91.50;;;;;;5014130;28;20235;-72
2023/05/29 11:13:09;;;;;;;5.63;2.67;;;24.00;91.90;;;;;;5012022;28;20208;-72
2023/05/29 11:15:37;;;;;;;3.38;2.75;;;24.30;91.50;;;;;;5010182;28;20305;-74
2023/05/29 11:18:07;;;;;;;5.05;2.63;;;24.50;90.80;;;;;;5017641;28;20707;-73
2023/05/29 11:20:37;;;;;;;6.05;2.72;;;24.60;88.80;;;;;;5002015;28;20228;-73
2023/05/29 11:23:07;;;;;;;6.93;4.60;;;24.70;88.30;;;;;;5017929;28;20581;-73
2023/05/29 11:25:35;;;;;;;5.50;3.40;;;24.80;88.10;;;;;;5016862;28;20205;-73
2023/05/29 11:28:03;;;;;;;6.15;3.00;;;24.00;90.50;;;;;;5019056;28;20218;-74
2023/05/29 11:30:30;;;;;;;3.25;2.45;;;23.80;90.90;;;;;;5017484;28;20205;-72
2023/05/29 11:33:01;;;;;;;6.22;2.97;;;23.70;91.40;;;;;;5003419;28;20614;-74
2023/05/29 11:35:31;;;;;;;3.90;2.40;;;23.60;91.70;;;;;;4998024;28;20200;-73
2023/05/29 11:37:57;;;;;;;5.95;2.85;;;23.60;91.50;;;;;;4995094;28;20236;-74
2023/05/29 11:40:23;;;;;;;3.80;2.78;;;23.90;91.80;;;;;;4994577;28;20729;-73
2023/05/29 11:42:50;;;;;;;4.50;2.60;;;23.70;91.20;;;;;;5009731;28;20293;-73
2023/05/29 11:45:20;;;;;;;4.57;2.40;;;23.80;91.00;;;;;;4998714;28;20579;-74
2023/05/29 11:47:52;;;;;;;3.20;2.22;;;24.10;90.90;;;;;;5015528;28;20217;-74
2023/05/29 11:50:26;;;;;;;3.83;2.70;;;24.10;90.90;;;;;;5001423;28;20208;-73
2023/05/29 11:52:52;;;;;;;4.78;2.30;;;24.30;88.20;;;;;;5006288;28;20225;-74
2023/05/29 11:55:20;;;;;;;4.60;2.60;;;24.20;88.40;;;;;;5019133;28;20258;-73
2023/05/29 11:57:46;;;;;;;4.40;2.80;;;24.00;90.40;;;;;;5018699;28;20217;-73
2023/05/29 12:00:16;;;;;;;4.28;2.33;;;23.60;91.60;;;;;;5003061;28;20662;-73
2023/05/29 12:02:43;;;;;;;6.57;3.70;;;23.50;92.00;;;;;;5002676;28;20181;-74
2023/05/29 12:05:10;;;;;;;4.95;2.70;;;23.30;92.20;;;;;;5021191;28;20205;-74
2023/05/29 12:07:36;;;;;;;7.38;2.92;;;23.70;91.80;;;;;;5020048;28;21052;-73
2023/05/29 12:10:16;;;;;;;6.10;3.10;;;23.60;91.60;;;;;;5023150;28;20208;-74
2023/05/29 12:12:47;;;;;;;10.32;4.50;;;23.90;91.90;;;;;;5023572;28;20689;-74
2023/05/29 12:15:13;;;;;;;6.82;3.80;;;24.00;91.30;;;;;;5013132;28;20177;-74
2023/05/29 12:17:40;;;;;;;10.00;3.22;;;23.80;91.10;;;;;;4994999;28;20304;-74
2023/05/29 12:20:09;;;;;;;6.35;3.67;;;23.10;90.90;;;;;;5017230;28;20199;-74
2023/05/29 12:22:36;;;;;;;6.18;3.58;;;23.50;91.10;;;;;;5013910;28;20220;-72
2023/05/29 12:25:13;;;;;;;4.85;2.80;;;23.80;90.30;;;;;;5000639;28;20682;-75
2023/05/29 12:27:43;;;;;;;5.35;3.70;;;23.90;91.30;;;;;;5014515;28;20602;-73
2023/05/29 12:30:16;;;;;;;5.47;3.47;;;24.00;91.70;;;;;;4997217;28;20183;-72
2023/05/29 12:32:51;;;;;;;5.22;3.42;;;24.00;90.90;;;;;;5016319;28;20166;-73
2023/05/29 12:35:24;;;;;;;7.18;3.67;;;23.80;90.90;;;;;;5018875;28;20196;-72
2023/05/29 12:37:53;;;;;;;6.05;4.47;;;23.90;91.00;;;;;;5020484;28;20348;-73
2023/05/29 12:40:22;;;;;;;6.78;3.35;;;23.90;91.20;;;;;;5019941;28;20220;-72
2023/05/29 12:42:49;;;;;;;2.95;2.13;;;23.80;90.70;;;;;;5009886;28;20197;-73
2023/05/29 12:45:17;;;;;;;6.68;2.80;;;24.00;90.60;;;;;;5002491;28;20173;-73
2023/05/29 12:48:03;;;;;;;4.45;2.80;;;23.70;90.40;;;;;;5022020;28;20201;-73
2023/05/29 12:50:30;;;;;;;4.45;2.80;;;23.70;90.50;;;;;;5018463;28;20583;-72